sensor_id;sensor_type;location;lat;lon;timestamp;temperature;humidity
11762;DHT22;5938;47.098;15.474;2022-11-20T00:00:44;1.70;99.90
11762;DHT22;5938;47.098;15.474;2022-11-20T00:04:47;1.70;99.90
11762;DHT22;5938;47.098;15.474;2022-11-20T00:08:51;1.80;99.90
11762;DHT22;5938;47.098;15.474;2022-11-20T00:12:54;1.80;99.90
11762;DHT22;5938;47.098;15.474;2022-11-20T00:16:59;1.80;99.90
11762;DHT22;5938;47.098;15.474;2022-11-20T00:21:03;1.70;99.90
11762;DHT22;5938;47.098;15.474;2022-11-20T00:25:07;1.90;99.90
11762;DHT22;5938;47.098;15.474;2022-11-20T00:29:10;1.80;99.90
11762;DHT22;5938;47.098;15.474;2022-11-20T00:33:15;1.90;99.90
11762;DHT22;5938;47.098;15.474;2022-11-20T00:37:18;1.50;99.90
11762;DHT22;5938;47.098;15.474;2022-11-20T00:41:22;1.90;99.90
11762;DHT22;5938;47.098;15.474;2022-11-20T00:45:26;1.90;99.90
11762;DHT22;5938;47.098;15.474;2022-11-20T00:49:30;1.90;99.90
11762;DHT22;5938;47.098;15.474;2022-11-20T00:53:34;1.90;99.90
11762;DHT22;5938;47.098;15.474;2022-11-20T00:57:37;1.50;99.90
11762;DHT22;5938;47.098;15.474;2022-11-20T01:01:40;1.90;99.90
11762;DHT22;5938;47.098;15.474;2022-11-20T01:05:45;1.70;99.90
11762;DHT22;5938;47.098;15.474;2022-11-20T01:09:48;1.90;99.90
11762;DHT22;5938;47.098;15.474;2022-11-20T01:13:53;2.00;99.90
11762;DHT22;5938;47.098;15.474;2022-11-20T01:17:56;2.00;99.90
11762;DHT22;5938;47.098;15.474;2022-11-20T01:22:01;1.90;99.90
11762;DHT22;5938;47.098;15.474;2022-11-20T01:26:06;1.90;99.90
11762;DHT22;5938;47.098;15.474;2022-11-20T01:30:11;1.80;99.90
11762;DHT22;5938;47.098;15.474;2022-11-20T01:34:16;2.00;99.90
11762;DHT22;5938;47.098;15.474;2022-11-20T01:38:21;1.90;99.90
11762;DHT22;5938;47.098;15.474;2022-11-20T01:42:24;1.90;99.90
11762;DHT22;5938;47.098;15.474;2022-11-20T01:46:52;2.00;99.90
11762;DHT22;5938;47.098;15.474;2022-11-20T01:50:58;2.00;99.90
11762;DHT22;5938;47.098;15.474;2022-11-20T01:55:05;1.80;99.90
11762;DHT22;5938;47.098;15.474;2022-11-20T01:59:12;2.10;99.90
11762;DHT22;5938;47.098;15.474;2022-11-20T02:03:17;2.10;99.90
11762;DHT22;5938;47.098;15.474;2022-11-20T02:07:22;2.10;99.90
11762;DHT22;5938;47.098;15.474;2022-11-20T02:11:30;2.00;99.90
11762;DHT22;5938;47.098;15.474;2022-11-20T02:15:33;2.00;99.90
11762;DHT22;5938;47.098;15.474;2022-11-20T02:19:37;2.20;99.90
11762;DHT22;5938;47.098;15.474;2022-11-20T02:23:55;2.10;99.90
11762;DHT22;5938;47.098;15.474;2022-11-20T02:27:59;2.20;99.90
11762;DHT22;5938;47.098;15.474;2022-11-20T02:32:03;2.20;99.90
11762;DHT22;5938;47.098;15.474;2022-11-20T02:36:09;2.20;99.90
11762;DHT22;5938;47.098;15.474;2022-11-20T02:40:16;2.10;99.90
11762;DHT22;5938;47.098;15.474;2022-11-20T02:44:23;2.10;99.90
11762;DHT22;5938;47.098;15.474;2022-11-20T02:48:26;2.10;99.90
11762;DHT22;5938;47.098;15.474;2022-11-20T02:52:34;2.10;99.90
11762;DHT22;5938;47.098;15.474;2022-11-20T02:56:39;2.20;99.90
11762;DHT22;5938;47.098;15.474;2022-11-20T03:00:42;2.10;99.90
11762;DHT22;5938;47.098;15.474;2022-11-20T03:04:46;2.20;99.90
11762;DHT22;5938;47.098;15.474;2022-11-20T03:08:49;2.10;99.90
11762;DHT22;5938;47.098;15.474;2022-11-20T03:12:55;2.00;99.90
11762;DHT22;5938;47.098;15.474;2022-11-20T03:16:58;2.10;99.90
11762;DHT22;5938;47.098;15.474;2022-11-20T03:21:01;2.20;99.90
11762;DHT22;5938;47.098;15.474;2022-11-20T03:25:05;2.20;99.90
11762;DHT22;5938;47.098;15.474;2022-11-20T03:29:10;2.30;99.90
11762;DHT22;5938;47.098;15.474;2022-11-20T03:33:13;2.20;99.90
11762;DHT22;5938;47.098;15.474;2022-11-20T03:37:17;2.20;99.90
11762;DHT22;5938;47.098;15.474;2022-11-20T03:41:22;2.20;99.90
11762;DHT22;5938;47.098;15.474;2022-11-20T03:45:27;2.20;99.90
11762;DHT22;5938;47.098;15.474;2022-11-20T03:49:30;2.10;99.90
11762;DHT22;5938;47.098;15.474;2022-11-20T03:53:34;2.00;99.90
11762;DHT22;5938;47.098;15.474;2022-11-20T03:57:37;2.10;99.90
11762;DHT22;5938;47.098;15.474;2022-11-20T04:01:42;2.20;99.90
11762;DHT22;5938;47.098;15.474;2022-11-20T04:05:50;2.10;99.90
11762;DHT22;5938;47.098;15.474;2022-11-20T04:09:53;1.80;99.90
11762;DHT22;5938;47.098;15.474;2022-11-20T04:13:58;2.10;99.90
11762;DHT22;5938;47.098;15.474;2022-11-20T04:18:03;2.00;99.90
11762;DHT22;5938;47.098;15.474;2022-11-20T04:22:07;1.60;99.90
11762;DHT22;5938;47.098;15.474;2022-11-20T04:26:11;1.60;99.90
11762;DHT22;5938;47.098;15.474;2022-11-20T04:30:15;1.90;99.90
11762;DHT22;5938;47.098;15.474;2022-11-20T04:34:20;2.20;99.90
11762;DHT22;5938;47.098;15.474;2022-11-20T04:38:23;2.10;99.90
11762;DHT22;5938;47.098;15.474;2022-11-20T04:42:26;2.10;99.90
11762;DHT22;5938;47.098;15.474;2022-11-20T04:46:34;2.10;99.90
11762;DHT22;5938;47.098;15.474;2022-11-20T04:50:41;2.10;99.90
11762;DHT22;5938;47.098;15.474;2022-11-20T04:54:44;2.10;99.90
11762;DHT22;5938;47.098;15.474;2022-11-20T04:58:48;2.00;99.90
11762;DHT22;5938;47.098;15.474;2022-11-20T05:02:51;1.70;99.90
11762;DHT22;5938;47.098;15.474;2022-11-20T05:06:56;2.00;99.90
11762;DHT22;5938;47.098;15.474;2022-11-20T05:11:00;2.00;99.90
11762;DHT22;5938;47.098;15.474;2022-11-20T05:15:05;1.90;99.90
11762;DHT22;5938;47.098;15.474;2022-11-20T05:19:08;1.90;99.90
11762;DHT22;5938;47.098;15.474;2022-11-20T05:23:13;1.80;99.90
11762;DHT22;5938;47.098;15.474;2022-11-20T05:27:16;1.90;99.90
11762;DHT22;5938;47.098;15.474;2022-11-20T05:31:22;1.30;99.90
11762;DHT22;5938;47.098;15.474;2022-11-20T05:35:29;1.70;99.90
11762;DHT22;5938;47.098;15.474;2022-11-20T05:39:33;1.70;99.90
11762;DHT22;5938;47.098;15.474;2022-11-20T05:43:38;1.60;99.90
11762;DHT22;5938;47.098;15.474;2022-11-20T05:47:42;1.60;99.90
11762;DHT22;5938;47.098;15.474;2022-11-20T05:51:46;1.60;99.90
11762;DHT22;5938;47.098;15.474;2022-11-20T05:55:58;1.70;99.90
11762;DHT22;5938;47.098;15.474;2022-11-20T06:00:01;1.70;99.90
11762;DHT22;5938;47.098;15.474;2022-11-20T06:04:04;1.80;99.90
11762;DHT22;5938;47.098;15.474;2022-11-20T06:08:08;2.00;99.90
11762;DHT22;5938;47.098;15.474;2022-11-20T06:12:12;1.90;99.90
11762;DHT22;5938;47.098;15.474;2022-11-20T06:16:18;2.00;99.90
11762;DHT22;5938;47.098;15.474;2022-11-20T06:20:22;1.80;99.90
11762;DHT22;5938;47.098;15.474;2022-11-20T06:24:25;1.80;99.90
11762;DHT22;5938;47.098;15.474;2022-11-20T06:28:30;1.90;99.90
11762;DHT22;5938;47.098;15.474;2022-11-20T06:32:34;1.90;99.90
11762;DHT22;5938;47.098;15.474;2022-11-20T06:36:37;1.60;99.90
11762;DHT22;5938;47.098;15.474;2022-11-20T06:40:41;1.90;99.90
11762;DHT22;5938;47.098;15.474;2022-11-20T06:44:45;2.00;99.90
11762;DHT22;5938;47.098;15.474;2022-11-20T06:48:49;2.00;99.90
11762;DHT22;5938;47.098;15.474;2022-11-20T06:52:54;2.10;99.90
11762;DHT22;5938;47.098;15.474;2022-11-20T06:56:57;2.20;99.90
11762;DHT22;5938;47.098;15.474;2022-11-20T07:01:04;2.20;99.90
11762;DHT22;5938;47.098;15.474;2022-11-20T07:05:08;2.30;99.90
11762;DHT22;5938;47.098;15.474;2022-11-20T07:09:11;2.40;99.90
11762;DHT22;5938;47.098;15.474;2022-11-20T07:13:15;2.50;99.90
11762;DHT22;5938;47.098;15.474;2022-11-20T07:17:19;2.40;99.90
11762;DHT22;5938;47.098;15.474;2022-11-20T07:21:23;2.50;99.90
11762;DHT22;5938;47.098;15.474;2022-11-20T07:25:27;2.60;99.90
11762;DHT22;5938;47.098;15.474;2022-11-20T07:29:32;2.70;99.90
11762;DHT22;5938;47.098;15.474;2022-11-20T07:33:37;2.70;99.90
11762;DHT22;5938;47.098;15.474;2022-11-20T07:37:40;2.90;99.90
11762;DHT22;5938;47.098;15.474;2022-11-20T07:41:43;2.90;99.90
11762;DHT22;5938;47.098;15.474;2022-11-20T07:45:46;2.90;99.90
11762;DHT22;5938;47.098;15.474;2022-11-20T07:49:51;3.00;99.90
11762;DHT22;5938;47.098;15.474;2022-11-20T07:53:55;3.20;99.90
11762;DHT22;5938;47.098;15.474;2022-11-20T07:57:58;3.30;99.90
11762;DHT22;5938;47.098;15.474;2022-11-20T08:02:01;3.40;99.90
11762;DHT22;5938;47.098;15.474;2022-11-20T08:06:07;3.50;99.90
11762;DHT22;5938;47.098;15.474;2022-11-20T08:10:12;3.50;99.90
11762;DHT22;5938;47.098;15.474;2022-11-20T08:14:16;3.60;99.90
11762;DHT22;5938;47.098;15.474;2022-11-20T08:18:19;3.60;99.90
11762;DHT22;5938;47.098;15.474;2022-11-20T08:22:39;3.50;99.90
11762;DHT22;5938;47.098;15.474;2022-11-20T08:26:42;3.50;99.90
11762;DHT22;5938;47.098;15.474;2022-11-20T08:30:46;3.60;99.90
11762;DHT22;5938;47.098;15.474;2022-11-20T08:34:50;3.50;99.90
11762;DHT22;5938;47.098;15.474;2022-11-20T08:38:56;3.60;99.90
11762;DHT22;5938;47.098;15.474;2022-11-20T08:42:59;3.60;99.90
11762;DHT22;5938;47.098;15.474;2022-11-20T08:47:02;3.70;99.90
11762;DHT22;5938;47.098;15.474;2022-11-20T08:51:06;3.70;99.90
11762;DHT22;5938;47.098;15.474;2022-11-20T08:55:11;3.80;99.90
11762;DHT22;5938;47.098;15.474;2022-11-20T08:59:14;3.90;99.90
11762;DHT22;5938;47.098;15.474;2022-11-20T09:03:37;3.90;99.90
11762;DHT22;5938;47.098;15.474;2022-11-20T09:07:41;4.00;99.90
11762;DHT22;5938;47.098;15.474;2022-11-20T09:11:45;4.10;99.90
11762;DHT22;5938;47.098;15.474;2022-11-20T09:15:53;4.00;99.90
11762;DHT22;5938;47.098;15.474;2022-11-20T09:19:56;4.10;99.90
11762;DHT22;5938;47.098;15.474;2022-11-20T09:24:00;4.10;99.90
11762;DHT22;5938;47.098;15.474;2022-11-20T09:28:05;4.20;99.90
11762;DHT22;5938;47.098;15.474;2022-11-20T09:32:08;4.30;99.90
11762;DHT22;5938;47.098;15.474;2022-11-20T09:36:12;4.40;99.90
11762;DHT22;5938;47.098;15.474;2022-11-20T09:40:20;4.60;99.90
11762;DHT22;5938;47.098;15.474;2022-11-20T09:44:38;4.70;99.90
11762;DHT22;5938;47.098;15.474;2022-11-20T09:53:35;4.90;99.90
11762;DHT22;5938;47.098;15.474;2022-11-20T09:57:47;4.90;99.90
11762;DHT22;5938;47.098;15.474;2022-11-20T10:01:54;5.10;99.90
11762;DHT22;5938;47.098;15.474;2022-11-20T10:06:00;6.00;99.90
11762;DHT22;5938;47.098;15.474;2022-11-20T10:10:15;6.70;99.90
11762;DHT22;5938;47.098;15.474;2022-11-20T10:14:26;7.20;99.90
11762;DHT22;5938;47.098;15.474;2022-11-20T10:18:49;7.50;99.90
11762;DHT22;5938;47.098;15.474;2022-11-20T10:23:12;7.80;99.90
11762;DHT22;5938;47.098;15.474;2022-11-20T11:05:33;10.40;99.90
11762;DHT22;5938;47.098;15.474;2022-11-20T11:09:42;10.00;99.90
11762;DHT22;5938;47.098;15.474;2022-11-20T11:14:05;9.50;99.90
11762;DHT22;5938;47.098;15.474;2022-11-20T11:18:09;9.90;99.90
11762;DHT22;5938;47.098;15.474;2022-11-20T11:22:18;10.00;99.90
11762;DHT22;5938;47.098;15.474;2022-11-20T11:26:23;9.60;99.90
11762;DHT22;5938;47.098;15.474;2022-11-20T11:30:28;9.30;99.90
11762;DHT22;5938;47.098;15.474;2022-11-20T11:34:34;9.00;99.90
11762;DHT22;5938;47.098;15.474;2022-11-20T11:38:41;9.00;99.90
11762;DHT22;5938;47.098;15.474;2022-11-20T11:42:52;9.00;99.90
11762;DHT22;5938;47.098;15.474;2022-11-20T11:46:58;9.10;99.90
11762;DHT22;5938;47.098;15.474;2022-11-20T11:51:02;8.80;99.90
11762;DHT22;5938;47.098;15.474;2022-11-20T11:55:10;8.10;99.90
11762;DHT22;5938;47.098;15.474;2022-11-20T11:59:20;7.70;99.90
11762;DHT22;5938;47.098;15.474;2022-11-20T12:03:29;7.40;99.90
11762;DHT22;5938;47.098;15.474;2022-11-20T12:07:41;7.20;99.90
11762;DHT22;5938;47.098;15.474;2022-11-20T12:11:54;7.80;99.90
11762;DHT22;5938;47.098;15.474;2022-11-20T12:16:00;11.50;99.90
11762;DHT22;5938;47.098;15.474;2022-11-20T12:20:10;15.10;95.30
11762;DHT22;5938;47.098;15.474;2022-11-20T12:24:38;17.50;91.80
11762;DHT22;5938;47.098;15.474;2022-11-20T12:28:56;17.60;87.20
11762;DHT22;5938;47.098;15.474;2022-11-20T12:33:24;19.10;80.80
11762;DHT22;5938;47.098;15.474;2022-11-20T12:37:36;20.00;80.00
11762;DHT22;5938;47.098;15.474;2022-11-20T12:46:52;19.50;76.50
11762;DHT22;5938;47.098;15.474;2022-11-20T12:51:14;19.80;76.70
11762;DHT22;5938;47.098;15.474;2022-11-20T12:55:33;17.30;80.00
11762;DHT22;5938;47.098;15.474;2022-11-20T12:59:54;14.90;87.10
11762;DHT22;5938;47.098;15.474;2022-11-20T13:04:12;13.20;91.10
11762;DHT22;5938;47.098;15.474;2022-11-20T13:08:22;12.00;92.90
11762;DHT22;5938;47.098;15.474;2022-11-20T13:12:33;11.50;94.10
11762;DHT22;5938;47.098;15.474;2022-11-20T13:16:44;10.70;94.00
11762;DHT22;5938;47.098;15.474;2022-11-20T13:20:52;10.20;95.10
11762;DHT22;5938;47.098;15.474;2022-11-20T13:24:57;9.40;96.60
11762;DHT22;5938;47.098;15.474;2022-11-20T13:29:07;9.00;98.30
11762;DHT22;5938;47.098;15.474;2022-11-20T13:33:23;8.90;98.30
11762;DHT22;5938;47.098;15.474;2022-11-20T13:37:32;9.00;99.90
11762;DHT22;5938;47.098;15.474;2022-11-20T13:41:37;9.30;99.90
11762;DHT22;5938;47.098;15.474;2022-11-20T13:45:43;9.40;98.10
11762;DHT22;5938;47.098;15.474;2022-11-20T13:49:58;9.20;99.90
11762;DHT22;5938;47.098;15.474;2022-11-20T13:54:49;9.20;99.20
11762;DHT22;5938;47.098;15.474;2022-11-20T13:59:02;9.00;99.90
11762;DHT22;5938;47.098;15.474;2022-11-20T14:03:18;9.00;99.90
11762;DHT22;5938;47.098;15.474;2022-11-20T14:07:44;8.90;99.90
11762;DHT22;5938;47.098;15.474;2022-11-20T14:11:50;8.90;99.90
11762;DHT22;5938;47.098;15.474;2022-11-20T14:15:57;8.80;99.90
11762;DHT22;5938;47.098;15.474;2022-11-20T14:20:05;8.50;99.90
11762;DHT22;5938;47.098;15.474;2022-11-20T14:24:11;7.90;99.90
11762;DHT22;5938;47.098;15.474;2022-11-20T14:28:25;7.20;99.90
11762;DHT22;5938;47.098;15.474;2022-11-20T14:32:33;6.80;99.90
11762;DHT22;5938;47.098;15.474;2022-11-20T14:36:39;6.30;99.90
11762;DHT22;5938;47.098;15.474;2022-11-20T14:40:44;6.00;99.90
11762;DHT22;5938;47.098;15.474;2022-11-20T14:45:00;5.70;99.90
11762;DHT22;5938;47.098;15.474;2022-11-20T14:49:20;5.40;99.90
11762;DHT22;5938;47.098;15.474;2022-11-20T14:53:29;5.20;99.90
11762;DHT22;5938;47.098;15.474;2022-11-20T14:57:38;4.90;99.90
11762;DHT22;5938;47.098;15.474;2022-11-20T15:01:56;4.80;99.90
11762;DHT22;5938;47.098;15.474;2022-11-20T15:06:11;4.60;99.90
11762;DHT22;5938;47.098;15.474;2022-11-20T15:10:23;4.50;99.90
11762;DHT22;5938;47.098;15.474;2022-11-20T15:14:30;4.30;99.90
11762;DHT22;5938;47.098;15.474;2022-11-20T15:18:45;4.20;99.90
11762;DHT22;5938;47.098;15.474;2022-11-20T15:23:10;4.00;99.90
11762;DHT22;5938;47.098;15.474;2022-11-20T15:27:15;3.90;99.90
11762;DHT22;5938;47.098;15.474;2022-11-20T15:31:20;3.70;99.90
11762;DHT22;5938;47.098;15.474;2022-11-20T15:35:26;3.60;99.90
11762;DHT22;5938;47.098;15.474;2022-11-20T15:39:31;3.40;99.90
11762;DHT22;5938;47.098;15.474;2022-11-20T15:43:35;3.30;99.90
11762;DHT22;5938;47.098;15.474;2022-11-20T15:47:39;3.20;99.90
11762;DHT22;5938;47.098;15.474;2022-11-20T15:51:46;3.10;99.90
11762;DHT22;5938;47.098;15.474;2022-11-20T15:55:51;2.90;99.90
11762;DHT22;5938;47.098;15.474;2022-11-20T15:59:56;2.70;99.90
11762;DHT22;5938;47.098;15.474;2022-11-20T16:04:00;2.70;99.90
11762;DHT22;5938;47.098;15.474;2022-11-20T16:08:06;2.70;99.90
11762;DHT22;5938;47.098;15.474;2022-11-20T16:12:13;2.60;99.90
11762;DHT22;5938;47.098;15.474;2022-11-20T16:16:38;2.60;99.90
11762;DHT22;5938;47.098;15.474;2022-11-20T16:20:47;2.40;99.90
11762;DHT22;5938;47.098;15.474;2022-11-20T16:24:58;2.40;99.90
11762;DHT22;5938;47.098;15.474;2022-11-20T16:29:05;2.60;99.90
11762;DHT22;5938;47.098;15.474;2022-11-20T16:33:14;2.80;99.90
11762;DHT22;5938;47.098;15.474;2022-11-20T16:37:20;3.00;99.90
11762;DHT22;5938;47.098;15.474;2022-11-20T16:41:27;3.20;99.90
11762;DHT22;5938;47.098;15.474;2022-11-20T16:45:34;3.30;99.90
11762;DHT22;5938;47.098;15.474;2022-11-20T16:49:38;3.40;99.90
11762;DHT22;5938;47.098;15.474;2022-11-20T16:53:45;3.60;99.90
11762;DHT22;5938;47.098;15.474;2022-11-20T16:57:54;3.90;99.90
11762;DHT22;5938;47.098;15.474;2022-11-20T17:02:02;4.00;99.90
11762;DHT22;5938;47.098;15.474;2022-11-20T17:06:11;4.20;99.90
11762;DHT22;5938;47.098;15.474;2022-11-20T17:10:19;4.10;99.90
11762;DHT22;5938;47.098;15.474;2022-11-20T17:14:25;4.20;99.90
11762;DHT22;5938;47.098;15.474;2022-11-20T17:18:40;4.10;99.90
11762;DHT22;5938;47.098;15.474;2022-11-20T17:22:46;4.20;99.90
11762;DHT22;5938;47.098;15.474;2022-11-20T17:26:53;4.20;99.90
11762;DHT22;5938;47.098;15.474;2022-11-20T17:31:03;4.30;99.90
11762;DHT22;5938;47.098;15.474;2022-11-20T17:35:11;4.30;99.90
11762;DHT22;5938;47.098;15.474;2022-11-20T17:39:19;4.30;99.90
11762;DHT22;5938;47.098;15.474;2022-11-20T17:43:26;4.20;99.90
11762;DHT22;5938;47.098;15.474;2022-11-20T17:47:38;4.30;99.90
11762;DHT22;5938;47.098;15.474;2022-11-20T17:51:57;4.20;99.90
11762;DHT22;5938;47.098;15.474;2022-11-20T17:56:11;4.20;99.90
11762;DHT22;5938;47.098;15.474;2022-11-20T18:00:34;4.20;99.90
11762;DHT22;5938;47.098;15.474;2022-11-20T18:04:49;4.00;99.90
11762;DHT22;5938;47.098;15.474;2022-11-20T18:08:57;4.00;99.90
11762;DHT22;5938;47.098;15.474;2022-11-20T18:13:03;4.10;99.90
11762;DHT22;5938;47.098;15.474;2022-11-20T18:17:09;4.10;99.90
11762;DHT22;5938;47.098;15.474;2022-11-20T18:21:17;4.10;99.90
11762;DHT22;5938;47.098;15.474;2022-11-20T18:25:22;4.10;99.90
11762;DHT22;5938;47.098;15.474;2022-11-20T18:29:29;4.00;99.90
11762;DHT22;5938;47.098;15.474;2022-11-20T18:33:35;4.10;99.90
11762;DHT22;5938;47.098;15.474;2022-11-20T18:37:44;4.10;99.90
11762;DHT22;5938;47.098;15.474;2022-11-20T18:41:50;4.30;99.90
11762;DHT22;5938;47.098;15.474;2022-11-20T18:46:12;4.20;99.90
11762;DHT22;5938;47.098;15.474;2022-11-20T18:50:16;4.30;99.90
11762;DHT22;5938;47.098;15.474;2022-11-20T18:54:27;4.30;99.90
11762;DHT22;5938;47.098;15.474;2022-11-20T18:58:33;4.30;99.90
11762;DHT22;5938;47.098;15.474;2022-11-20T19:02:39;4.30;99.90
11762;DHT22;5938;47.098;15.474;2022-11-20T19:06:45;4.30;99.90
11762;DHT22;5938;47.098;15.474;2022-11-20T19:10:54;4.30;99.90
11762;DHT22;5938;47.098;15.474;2022-11-20T19:15:04;4.30;99.90
11762;DHT22;5938;47.098;15.474;2022-11-20T19:19:10;4.30;99.90
11762;DHT22;5938;47.098;15.474;2022-11-20T19:23:16;4.30;99.90
11762;DHT22;5938;47.098;15.474;2022-11-20T19:27:25;4.30;99.90
11762;DHT22;5938;47.098;15.474;2022-11-20T19:31:31;4.20;99.90
11762;DHT22;5938;47.098;15.474;2022-11-20T19:35:36;4.20;99.90
11762;DHT22;5938;47.098;15.474;2022-11-20T19:39:44;4.30;99.90
11762;DHT22;5938;47.098;15.474;2022-11-20T19:43:51;4.30;99.90
11762;DHT22;5938;47.098;15.474;2022-11-20T19:48:00;4.30;99.90
11762;DHT22;5938;47.098;15.474;2022-11-20T19:52:10;4.30;99.90
11762;DHT22;5938;47.098;15.474;2022-11-20T19:56:18;4.30;99.90
11762;DHT22;5938;47.098;15.474;2022-11-20T20:00:24;4.30;99.90
11762;DHT22;5938;47.098;15.474;2022-11-20T20:04:34;4.20;99.90
11762;DHT22;5938;47.098;15.474;2022-11-20T20:08:40;4.30;99.90
11762;DHT22;5938;47.098;15.474;2022-11-20T20:12:57;4.30;99.90
11762;DHT22;5938;47.098;15.474;2022-11-20T20:17:05;4.30;99.90
11762;DHT22;5938;47.098;15.474;2022-11-20T20:21:21;4.30;99.90
11762;DHT22;5938;47.098;15.474;2022-11-20T20:25:28;4.20;99.90
11762;DHT22;5938;47.098;15.474;2022-11-20T20:29:41;3.90;99.90
11762;DHT22;5938;47.098;15.474;2022-11-20T20:33:48;3.80;99.90
11762;DHT22;5938;47.098;15.474;2022-11-20T20:37:53;3.80;99.90
11762;DHT22;5938;47.098;15.474;2022-11-20T20:42:01;3.80;99.90
11762;DHT22;5938;47.098;15.474;2022-11-20T20:46:06;3.80;99.90
11762;DHT22;5938;47.098;15.474;2022-11-20T20:50:12;3.90;99.90
11762;DHT22;5938;47.098;15.474;2022-11-20T20:54:17;3.80;99.90
11762;DHT22;5938;47.098;15.474;2022-11-20T20:58:22;3.70;99.90
11762;DHT22;5938;47.098;15.474;2022-11-20T21:02:30;3.60;99.90
11762;DHT22;5938;47.098;15.474;2022-11-20T21:06:36;3.40;99.90
11762;DHT22;5938;47.098;15.474;2022-11-20T21:10:41;3.20;99.90
11762;DHT22;5938;47.098;15.474;2022-11-20T21:14:46;3.10;99.90
11762;DHT22;5938;47.098;15.474;2022-11-20T21:18:50;3.00;99.90
11762;DHT22;5938;47.098;15.474;2022-11-20T21:22:58;2.80;99.90
11762;DHT22;5938;47.098;15.474;2022-11-20T21:27:03;2.90;99.90
11762;DHT22;5938;47.098;15.474;2022-11-20T21:31:09;3.00;99.90
11762;DHT22;5938;47.098;15.474;2022-11-20T21:35:13;3.00;99.90
11762;DHT22;5938;47.098;15.474;2022-11-20T21:39:20;3.20;99.90
11762;DHT22;5938;47.098;15.474;2022-11-20T21:43:24;3.20;99.90
11762;DHT22;5938;47.098;15.474;2022-11-20T21:47:29;3.20;99.90
11762;DHT22;5938;47.098;15.474;2022-11-20T21:51:33;3.10;99.90
11762;DHT22;5938;47.098;15.474;2022-11-20T21:55:41;3.20;99.90
11762;DHT22;5938;47.098;15.474;2022-11-20T21:59:44;3.10;99.90
11762;DHT22;5938;47.098;15.474;2022-11-20T22:03:48;3.10;99.90
11762;DHT22;5938;47.098;15.474;2022-11-20T22:07:52;3.10;99.90
11762;DHT22;5938;47.098;15.474;2022-11-20T22:11:57;3.00;99.90
11762;DHT22;5938;47.098;15.474;2022-11-20T22:16:00;2.90;99.90
11762;DHT22;5938;47.098;15.474;2022-11-20T22:20:04;2.90;99.90
11762;DHT22;5938;47.098;15.474;2022-11-20T22:24:11;2.90;99.90
11762;DHT22;5938;47.098;15.474;2022-11-20T22:28:16;2.90;99.90
11762;DHT22;5938;47.098;15.474;2022-11-20T22:32:19;2.90;99.90
11762;DHT22;5938;47.098;15.474;2022-11-20T22:36:24;2.80;99.90
11762;DHT22;5938;47.098;15.474;2022-11-20T22:40:29;2.70;99.90
11762;DHT22;5938;47.098;15.474;2022-11-20T22:44:35;2.70;99.90
11762;DHT22;5938;47.098;15.474;2022-11-20T22:48:39;2.70;99.90
11762;DHT22;5938;47.098;15.474;2022-11-20T22:52:43;2.70;99.90
11762;DHT22;5938;47.098;15.474;2022-11-20T22:56:46;2.60;99.90
11762;DHT22;5938;47.098;15.474;2022-11-20T23:00:52;2.60;99.90
11762;DHT22;5938;47.098;15.474;2022-11-20T23:04:55;2.60;99.90
11762;DHT22;5938;47.098;15.474;2022-11-20T23:08:59;2.60;99.90
11762;DHT22;5938;47.098;15.474;2022-11-20T23:13:04;2.60;99.90
11762;DHT22;5938;47.098;15.474;2022-11-20T23:17:09;2.50;99.90
11762;DHT22;5938;47.098;15.474;2022-11-20T23:21:15;2.70;99.90
11762;DHT22;5938;47.098;15.474;2022-11-20T23:25:24;2.70;99.90
11762;DHT22;5938;47.098;15.474;2022-11-20T23:29:27;2.50;99.90
11762;DHT22;5938;47.098;15.474;2022-11-20T23:33:34;2.50;99.90
11762;DHT22;5938;47.098;15.474;2022-11-20T23:37:37;2.60;99.90
11762;DHT22;5938;47.098;15.474;2022-11-20T23:41:41;2.70;99.90
11762;DHT22;5938;47.098;15.474;2022-11-20T23:45:46;2.50;99.90
11762;DHT22;5938;47.098;15.474;2022-11-20T23:49:51;2.60;99.90
11762;DHT22;5938;47.098;15.474;2022-11-20T23:53:54;2.60;99.90
11762;DHT22;5938;47.098;15.474;2022-11-20T23:58:05;2.60;99.90
